sensor_id;sensor_type;location;lat;lon;timestamp;P1;durP1;ratioP1;P2;durP2;ratioP2
14992;SDS011;7592;51.088;13.732;2022-12-11T00:00:19;33.57;;;21.30;;
14992;SDS011;7592;51.088;13.732;2022-12-11T00:05:12;32.17;;;21.00;;
14992;SDS011;7592;51.088;13.732;2022-12-11T00:10:04;35.17;;;21.33;;
14992;SDS011;7592;51.088;13.732;2022-12-11T00:14:58;34.53;;;22.03;;
14992;SDS011;7592;51.088;13.732;2022-12-11T00:19:50;29.83;;;19.20;;
14992;SDS011;7592;51.088;13.732;2022-12-11T00:24:42;31.70;;;20.57;;
14992;SDS011;7592;51.088;13.732;2022-12-11T00:29:35;29.93;;;19.13;;
14992;SDS011;7592;51.088;13.732;2022-12-11T00:34:27;30.73;;;20.17;;
14992;SDS011;7592;51.088;13.732;2022-12-11T00:39:22;32.93;;;20.57;;
14992;SDS011;7592;51.088;13.732;2022-12-11T00:44:15;33.83;;;20.00;;
14992;SDS011;7592;51.088;13.732;2022-12-11T00:49:07;35.57;;;20.87;;
14992;SDS011;7592;51.088;13.732;2022-12-11T00:53:59;29.50;;;20.13;;
14992;SDS011;7592;51.088;13.732;2022-12-11T00:58:51;30.27;;;20.87;;
14992;SDS011;7592;51.088;13.732;2022-12-11T01:03:44;33.97;;;21.87;;
14992;SDS011;7592;51.088;13.732;2022-12-11T01:08:37;29.73;;;20.07;;
14992;SDS011;7592;51.088;13.732;2022-12-11T01:13:30;32.27;;;21.23;;
14992;SDS011;7592;51.088;13.732;2022-12-11T01:18:22;27.50;;;17.77;;
14992;SDS011;7592;51.088;13.732;2022-12-11T01:23:14;32.10;;;19.87;;
14992;SDS011;7592;51.088;13.732;2022-12-11T01:28:07;32.47;;;19.40;;
14992;SDS011;7592;51.088;13.732;2022-12-11T01:32:59;30.03;;;18.97;;
14992;SDS011;7592;51.088;13.732;2022-12-11T01:37:51;31.67;;;21.10;;
14992;SDS011;7592;51.088;13.732;2022-12-11T01:42:43;28.70;;;19.33;;
14992;SDS011;7592;51.088;13.732;2022-12-11T01:47:36;29.67;;;19.60;;
14992;SDS011;7592;51.088;13.732;2022-12-11T01:52:30;27.63;;;17.47;;
14992;SDS011;7592;51.088;13.732;2022-12-11T01:57:23;27.27;;;17.87;;
14992;SDS011;7592;51.088;13.732;2022-12-11T02:02:20;28.97;;;18.63;;
14992;SDS011;7592;51.088;13.732;2022-12-11T02:14:43;28.40;;;17.47;;
14992;SDS011;7592;51.088;13.732;2022-12-11T02:25:03;29.63;;;18.30;;
14992;SDS011;7592;51.088;13.732;2022-12-11T02:30:13;28.73;;;17.60;;
14992;SDS011;7592;51.088;13.732;2022-12-11T02:40:09;27.87;;;17.10;;
14992;SDS011;7592;51.088;13.732;2022-12-11T02:45:04;26.03;;;16.67;;
14992;SDS011;7592;51.088;13.732;2022-12-11T02:50:01;24.23;;;16.40;;
14992;SDS011;7592;51.088;13.732;2022-12-11T02:54:58;26.30;;;16.40;;
14992;SDS011;7592;51.088;13.732;2022-12-11T02:59:53;26.37;;;16.83;;
14992;SDS011;7592;51.088;13.732;2022-12-11T03:04:45;24.87;;;15.97;;
14992;SDS011;7592;51.088;13.732;2022-12-11T03:09:41;27.20;;;15.40;;
14992;SDS011;7592;51.088;13.732;2022-12-11T03:14:35;26.30;;;17.17;;
14992;SDS011;7592;51.088;13.732;2022-12-11T03:19:39;24.73;;;16.93;;
14992;SDS011;7592;51.088;13.732;2022-12-11T03:29:35;25.50;;;16.47;;
14992;SDS011;7592;51.088;13.732;2022-12-11T03:39:50;23.17;;;16.53;;
14992;SDS011;7592;51.088;13.732;2022-12-11T03:44:47;25.80;;;16.83;;
14992;SDS011;7592;51.088;13.732;2022-12-11T03:49:41;24.77;;;15.90;;
14992;SDS011;7592;51.088;13.732;2022-12-11T03:54:35;24.73;;;15.50;;
14992;SDS011;7592;51.088;13.732;2022-12-11T03:59:28;23.00;;;15.70;;
14992;SDS011;7592;51.088;13.732;2022-12-11T04:04:20;23.30;;;15.70;;
14992;SDS011;7592;51.088;13.732;2022-12-11T04:09:12;22.27;;;14.60;;
14992;SDS011;7592;51.088;13.732;2022-12-11T04:14:05;22.83;;;14.87;;
14992;SDS011;7592;51.088;13.732;2022-12-11T04:19:18;24.63;;;16.47;;
14992;SDS011;7592;51.088;13.732;2022-12-11T04:24:30;21.57;;;14.37;;
14992;SDS011;7592;51.088;13.732;2022-12-11T04:29:22;21.80;;;15.87;;
14992;SDS011;7592;51.088;13.732;2022-12-11T04:34:13;25.87;;;16.40;;
14992;SDS011;7592;51.088;13.732;2022-12-11T04:39:05;32.03;;;18.07;;
14992;SDS011;7592;51.088;13.732;2022-12-11T04:43:57;31.90;;;18.17;;
14992;SDS011;7592;51.088;13.732;2022-12-11T04:48:50;38.60;;;26.33;;
14992;SDS011;7592;51.088;13.732;2022-12-11T04:53:48;28.07;;;19.20;;
14992;SDS011;7592;51.088;13.732;2022-12-11T04:58:40;27.53;;;18.40;;
14992;SDS011;7592;51.088;13.732;2022-12-11T05:03:33;27.17;;;17.63;;
14992;SDS011;7592;51.088;13.732;2022-12-11T05:08:25;26.33;;;17.67;;
14992;SDS011;7592;51.088;13.732;2022-12-11T05:13:17;24.00;;;15.23;;
14992;SDS011;7592;51.088;13.732;2022-12-11T05:18:09;25.23;;;16.07;;
14992;SDS011;7592;51.088;13.732;2022-12-11T05:23:01;24.77;;;15.83;;
14992;SDS011;7592;51.088;13.732;2022-12-11T05:27:53;21.33;;;15.23;;
14992;SDS011;7592;51.088;13.732;2022-12-11T05:32:45;21.67;;;15.17;;
14992;SDS011;7592;51.088;13.732;2022-12-11T05:37:38;27.27;;;15.73;;
14992;SDS011;7592;51.088;13.732;2022-12-11T05:42:31;37.30;;;30.73;;
14992;SDS011;7592;51.088;13.732;2022-12-11T05:47:24;24.77;;;16.37;;
14992;SDS011;7592;51.088;13.732;2022-12-11T05:52:16;20.10;;;13.77;;
14992;SDS011;7592;51.088;13.732;2022-12-11T05:57:08;20.83;;;14.23;;
14992;SDS011;7592;51.088;13.732;2022-12-11T06:02:00;20.17;;;13.33;;
14992;SDS011;7592;51.088;13.732;2022-12-11T06:06:52;20.67;;;13.87;;
14992;SDS011;7592;51.088;13.732;2022-12-11T06:11:45;15.50;;;11.23;;
14992;SDS011;7592;51.088;13.732;2022-12-11T06:16:37;17.27;;;12.87;;
14992;SDS011;7592;51.088;13.732;2022-12-11T06:21:30;16.60;;;10.97;;
14992;SDS011;7592;51.088;13.732;2022-12-11T06:26:23;18.33;;;12.90;;
14992;SDS011;7592;51.088;13.732;2022-12-11T06:31:17;18.17;;;12.77;;
14992;SDS011;7592;51.088;13.732;2022-12-11T06:36:11;18.83;;;12.83;;
14992;SDS011;7592;51.088;13.732;2022-12-11T06:41:08;16.77;;;12.07;;
14992;SDS011;7592;51.088;13.732;2022-12-11T06:46:04;17.03;;;12.03;;
14992;SDS011;7592;51.088;13.732;2022-12-11T06:50:57;16.83;;;12.13;;
14992;SDS011;7592;51.088;13.732;2022-12-11T06:55:48;18.93;;;12.53;;
14992;SDS011;7592;51.088;13.732;2022-12-11T07:00:40;15.70;;;12.00;;
14992;SDS011;7592;51.088;13.732;2022-12-11T07:05:33;17.10;;;11.77;;
14992;SDS011;7592;51.088;13.732;2022-12-11T07:10:25;16.17;;;11.90;;
14992;SDS011;7592;51.088;13.732;2022-12-11T07:15:17;16.80;;;11.90;;
14992;SDS011;7592;51.088;13.732;2022-12-11T07:20:10;15.53;;;11.47;;
14992;SDS011;7592;51.088;13.732;2022-12-11T07:25:02;17.30;;;11.53;;
14992;SDS011;7592;51.088;13.732;2022-12-11T07:29:54;14.83;;;10.77;;
14992;SDS011;7592;51.088;13.732;2022-12-11T07:34:49;17.90;;;11.87;;
14992;SDS011;7592;51.088;13.732;2022-12-11T07:39:42;18.60;;;11.80;;
14992;SDS011;7592;51.088;13.732;2022-12-11T07:44:34;18.30;;;10.57;;
14992;SDS011;7592;51.088;13.732;2022-12-11T07:49:26;16.17;;;11.40;;
14992;SDS011;7592;51.088;13.732;2022-12-11T07:54:18;18.43;;;11.60;;
14992;SDS011;7592;51.088;13.732;2022-12-11T07:59:11;16.80;;;11.37;;
14992;SDS011;7592;51.088;13.732;2022-12-11T08:04:04;16.93;;;11.30;;
14992;SDS011;7592;51.088;13.732;2022-12-11T08:08:58;17.43;;;11.87;;
14992;SDS011;7592;51.088;13.732;2022-12-11T08:13:51;16.57;;;11.27;;
14992;SDS011;7592;51.088;13.732;2022-12-11T08:18:44;18.67;;;12.63;;
14992;SDS011;7592;51.088;13.732;2022-12-11T08:23:37;17.17;;;12.10;;
14992;SDS011;7592;51.088;13.732;2022-12-11T08:28:29;16.47;;;10.83;;
14992;SDS011;7592;51.088;13.732;2022-12-11T08:33:21;15.87;;;11.23;;
14992;SDS011;7592;51.088;13.732;2022-12-11T08:38:13;15.30;;;9.90;;
14992;SDS011;7592;51.088;13.732;2022-12-11T08:43:05;15.97;;;10.30;;
14992;SDS011;7592;51.088;13.732;2022-12-11T08:47:58;14.50;;;9.57;;
14992;SDS011;7592;51.088;13.732;2022-12-11T08:52:50;17.57;;;10.90;;
14992;SDS011;7592;51.088;13.732;2022-12-11T08:57:44;15.40;;;10.73;;
14992;SDS011;7592;51.088;13.732;2022-12-11T09:02:36;15.73;;;11.27;;
14992;SDS011;7592;51.088;13.732;2022-12-11T09:07:28;15.70;;;10.47;;
14992;SDS011;7592;51.088;13.732;2022-12-11T09:12:20;17.60;;;9.97;;
14992;SDS011;7592;51.088;13.732;2022-12-11T09:17:13;14.97;;;10.00;;
14992;SDS011;7592;51.088;13.732;2022-12-11T09:22:05;13.70;;;9.57;;
14992;SDS011;7592;51.088;13.732;2022-12-11T09:26:57;15.90;;;9.80;;
14992;SDS011;7592;51.088;13.732;2022-12-11T09:31:49;14.50;;;9.10;;
14992;SDS011;7592;51.088;13.732;2022-12-11T09:36:41;13.23;;;9.43;;
14992;SDS011;7592;51.088;13.732;2022-12-11T09:41:35;16.23;;;10.43;;
14992;SDS011;7592;51.088;13.732;2022-12-11T09:46:39;14.53;;;9.80;;
14992;SDS011;7592;51.088;13.732;2022-12-11T09:51:38;16.47;;;10.37;;
14992;SDS011;7592;51.088;13.732;2022-12-11T10:07:17;16.07;;;10.03;;
14992;SDS011;7592;51.088;13.732;2022-12-11T10:12:23;15.10;;;10.33;;
14992;SDS011;7592;51.088;13.732;2022-12-11T10:17:31;17.10;;;9.73;;
14992;SDS011;7592;51.088;13.732;2022-12-11T10:22:26;15.13;;;10.30;;
14992;SDS011;7592;51.088;13.732;2022-12-11T10:27:23;13.73;;;9.50;;
14992;SDS011;7592;51.088;13.732;2022-12-11T10:32:23;14.17;;;8.97;;
14992;SDS011;7592;51.088;13.732;2022-12-11T10:37:26;17.20;;;11.27;;
14992;SDS011;7592;51.088;13.732;2022-12-11T10:42:19;14.27;;;10.10;;
14992;SDS011;7592;51.088;13.732;2022-12-11T10:47:13;13.63;;;9.47;;
14992;SDS011;7592;51.088;13.732;2022-12-11T10:52:09;13.03;;;8.73;;
14992;SDS011;7592;51.088;13.732;2022-12-11T10:57:10;14.17;;;9.20;;
14992;SDS011;7592;51.088;13.732;2022-12-11T11:02:06;15.20;;;9.67;;
14992;SDS011;7592;51.088;13.732;2022-12-11T11:07:26;11.50;;;8.63;;
14992;SDS011;7592;51.088;13.732;2022-12-11T11:12:21;15.47;;;9.67;;
14992;SDS011;7592;51.088;13.732;2022-12-11T11:17:16;14.00;;;10.57;;
14992;SDS011;7592;51.088;13.732;2022-12-11T11:22:11;12.83;;;9.77;;
14992;SDS011;7592;51.088;13.732;2022-12-11T11:27:18;15.33;;;10.30;;
14992;SDS011;7592;51.088;13.732;2022-12-11T11:32:38;15.77;;;11.43;;
14992;SDS011;7592;51.088;13.732;2022-12-11T11:37:31;13.07;;;10.07;;
14992;SDS011;7592;51.088;13.732;2022-12-11T11:42:27;14.50;;;10.30;;
14992;SDS011;7592;51.088;13.732;2022-12-11T11:47:30;13.90;;;10.70;;
14992;SDS011;7592;51.088;13.732;2022-12-11T11:52:31;18.07;;;12.20;;
14992;SDS011;7592;51.088;13.732;2022-12-11T12:02:29;17.00;;;12.77;;
14992;SDS011;7592;51.088;13.732;2022-12-11T12:33:43;14.23;;;10.13;;
14992;SDS011;7592;51.088;13.732;2022-12-11T12:38:52;13.20;;;9.37;;
14992;SDS011;7592;51.088;13.732;2022-12-11T12:48:58;11.23;;;8.97;;
14992;SDS011;7592;51.088;13.732;2022-12-11T12:53:54;12.10;;;10.03;;
14992;SDS011;7592;51.088;13.732;2022-12-11T12:58:48;13.87;;;9.67;;
14992;SDS011;7592;51.088;13.732;2022-12-11T13:08:46;13.27;;;11.23;;
14992;SDS011;7592;51.088;13.732;2022-12-11T13:13:42;15.67;;;11.10;;
14992;SDS011;7592;51.088;13.732;2022-12-11T13:18:44;14.30;;;11.10;;
14992;SDS011;7592;51.088;13.732;2022-12-11T13:23:38;12.17;;;10.23;;
14992;SDS011;7592;51.088;13.732;2022-12-11T13:28:32;14.20;;;10.53;;
14992;SDS011;7592;51.088;13.732;2022-12-11T13:33:24;14.47;;;9.63;;
14992;SDS011;7592;51.088;13.732;2022-12-11T13:38:18;12.57;;;9.63;;
14992;SDS011;7592;51.088;13.732;2022-12-11T13:43:22;14.73;;;11.43;;
14992;SDS011;7592;51.088;13.732;2022-12-11T13:48:26;12.40;;;9.93;;
14992;SDS011;7592;51.088;13.732;2022-12-11T13:53:21;14.77;;;10.77;;
14992;SDS011;7592;51.088;13.732;2022-12-11T13:58:20;13.80;;;11.13;;
14992;SDS011;7592;51.088;13.732;2022-12-11T14:03:13;16.57;;;10.87;;
14992;SDS011;7592;51.088;13.732;2022-12-11T14:08:06;18.07;;;11.60;;
14992;SDS011;7592;51.088;13.732;2022-12-11T14:13:05;17.30;;;12.87;;
14992;SDS011;7592;51.088;13.732;2022-12-11T14:18:25;17.93;;;13.03;;
14992;SDS011;7592;51.088;13.732;2022-12-11T14:23:21;19.37;;;13.63;;
14992;SDS011;7592;51.088;13.732;2022-12-11T14:28:18;21.20;;;13.30;;
14992;SDS011;7592;51.088;13.732;2022-12-11T14:33:11;18.00;;;12.57;;
14992;SDS011;7592;51.088;13.732;2022-12-11T14:38:06;18.53;;;13.70;;
14992;SDS011;7592;51.088;13.732;2022-12-11T14:43:07;19.43;;;13.50;;
14992;SDS011;7592;51.088;13.732;2022-12-11T14:48:13;20.27;;;13.43;;
14992;SDS011;7592;51.088;13.732;2022-12-11T14:53:12;16.13;;;11.47;;
14992;SDS011;7592;51.088;13.732;2022-12-11T14:58:17;19.40;;;13.20;;
14992;SDS011;7592;51.088;13.732;2022-12-11T15:13:03;16.73;;;12.10;;
14992;SDS011;7592;51.088;13.732;2022-12-11T15:17:57;16.80;;;12.07;;
14992;SDS011;7592;51.088;13.732;2022-12-11T15:22:49;25.13;;;15.80;;
14992;SDS011;7592;51.088;13.732;2022-12-11T15:27:41;19.77;;;13.00;;
14992;SDS011;7592;51.088;13.732;2022-12-11T15:32:33;17.80;;;12.87;;
14992;SDS011;7592;51.088;13.732;2022-12-11T15:42:21;18.20;;;12.03;;
14992;SDS011;7592;51.088;13.732;2022-12-11T15:47:22;18.63;;;13.67;;
14992;SDS011;7592;51.088;13.732;2022-12-11T15:52:16;22.30;;;12.17;;
14992;SDS011;7592;51.088;13.732;2022-12-11T15:57:10;21.33;;;12.97;;
14992;SDS011;7592;51.088;13.732;2022-12-11T16:02:11;19.93;;;13.37;;
14992;SDS011;7592;51.088;13.732;2022-12-11T16:07:03;19.37;;;14.53;;
14992;SDS011;7592;51.088;13.732;2022-12-11T16:11:56;22.37;;;14.27;;
14992;SDS011;7592;51.088;13.732;2022-12-11T16:16:48;19.87;;;13.90;;
14992;SDS011;7592;51.088;13.732;2022-12-11T16:21:42;19.40;;;14.37;;
14992;SDS011;7592;51.088;13.732;2022-12-11T16:26:34;29.57;;;18.43;;
14992;SDS011;7592;51.088;13.732;2022-12-11T16:31:26;34.97;;;18.80;;
14992;SDS011;7592;51.088;13.732;2022-12-11T16:36:19;22.63;;;14.03;;
14992;SDS011;7592;51.088;13.732;2022-12-11T16:41:11;23.30;;;14.70;;
14992;SDS011;7592;51.088;13.732;2022-12-11T16:46:03;21.47;;;14.23;;
14992;SDS011;7592;51.088;13.732;2022-12-11T16:50:56;21.87;;;14.20;;
14992;SDS011;7592;51.088;13.732;2022-12-11T16:55:50;22.27;;;14.60;;
14992;SDS011;7592;51.088;13.732;2022-12-11T17:00:42;19.83;;;13.67;;
14992;SDS011;7592;51.088;13.732;2022-12-11T17:05:34;27.50;;;18.03;;
14992;SDS011;7592;51.088;13.732;2022-12-11T17:10:28;23.33;;;16.80;;
14992;SDS011;7592;51.088;13.732;2022-12-11T17:15:20;24.20;;;15.77;;
14992;SDS011;7592;51.088;13.732;2022-12-11T17:20:12;26.57;;;15.40;;
14992;SDS011;7592;51.088;13.732;2022-12-11T17:25:06;47.33;;;23.40;;
14992;SDS011;7592;51.088;13.732;2022-12-11T17:29:58;26.37;;;16.63;;
14992;SDS011;7592;51.088;13.732;2022-12-11T17:34:53;21.87;;;13.90;;
14992;SDS011;7592;51.088;13.732;2022-12-11T17:39:45;20.00;;;13.43;;
14992;SDS011;7592;51.088;13.732;2022-12-11T17:44:39;21.90;;;14.37;;
14992;SDS011;7592;51.088;13.732;2022-12-11T17:49:31;19.90;;;13.50;;
14992;SDS011;7592;51.088;13.732;2022-12-11T17:54:23;21.43;;;14.63;;
14992;SDS011;7592;51.088;13.732;2022-12-11T17:59:15;22.63;;;13.77;;
14992;SDS011;7592;51.088;13.732;2022-12-11T18:04:08;21.17;;;13.00;;
14992;SDS011;7592;51.088;13.732;2022-12-11T18:09:00;21.47;;;14.33;;
14992;SDS011;7592;51.088;13.732;2022-12-11T18:13:52;19.90;;;13.20;;
14992;SDS011;7592;51.088;13.732;2022-12-11T18:18:45;23.30;;;15.60;;
14992;SDS011;7592;51.088;13.732;2022-12-11T18:23:38;21.47;;;14.60;;
14992;SDS011;7592;51.088;13.732;2022-12-11T18:28:30;22.27;;;14.63;;
14992;SDS011;7592;51.088;13.732;2022-12-11T18:33:25;21.47;;;14.27;;
14992;SDS011;7592;51.088;13.732;2022-12-11T18:38:17;21.40;;;14.77;;
14992;SDS011;7592;51.088;13.732;2022-12-11T18:43:09;23.17;;;14.83;;
14992;SDS011;7592;51.088;13.732;2022-12-11T18:48:02;22.50;;;15.07;;
14992;SDS011;7592;51.088;13.732;2022-12-11T18:52:54;20.60;;;15.37;;
14992;SDS011;7592;51.088;13.732;2022-12-11T18:57:46;24.53;;;15.33;;
14992;SDS011;7592;51.088;13.732;2022-12-11T19:02:38;22.97;;;15.60;;
14992;SDS011;7592;51.088;13.732;2022-12-11T19:07:32;25.53;;;16.47;;
14992;SDS011;7592;51.088;13.732;2022-12-11T19:12:24;26.30;;;16.23;;
14992;SDS011;7592;51.088;13.732;2022-12-11T19:17:16;26.00;;;16.03;;
14992;SDS011;7592;51.088;13.732;2022-12-11T19:22:08;25.00;;;15.37;;
14992;SDS011;7592;51.088;13.732;2022-12-11T19:27:00;23.40;;;15.13;;
14992;SDS011;7592;51.088;13.732;2022-12-11T19:31:53;27.77;;;17.53;;
14992;SDS011;7592;51.088;13.732;2022-12-11T19:36:46;44.43;;;21.10;;
14992;SDS011;7592;51.088;13.732;2022-12-11T19:41:38;35.43;;;19.40;;
14992;SDS011;7592;51.088;13.732;2022-12-11T19:46:31;40.23;;;19.77;;
14992;SDS011;7592;51.088;13.732;2022-12-11T19:51:25;34.13;;;18.93;;
14992;SDS011;7592;51.088;13.732;2022-12-11T19:56:19;26.57;;;15.77;;
14992;SDS011;7592;51.088;13.732;2022-12-11T20:01:22;23.90;;;15.43;;
14992;SDS011;7592;51.088;13.732;2022-12-11T20:06:16;24.03;;;14.90;;
14992;SDS011;7592;51.088;13.732;2022-12-11T20:11:08;21.47;;;14.57;;
14992;SDS011;7592;51.088;13.732;2022-12-11T20:16:08;24.40;;;14.63;;
14992;SDS011;7592;51.088;13.732;2022-12-11T20:21:02;23.77;;;15.17;;
14992;SDS011;7592;51.088;13.732;2022-12-11T20:25:58;21.73;;;13.37;;
14992;SDS011;7592;51.088;13.732;2022-12-11T20:30:50;25.33;;;14.73;;
14992;SDS011;7592;51.088;13.732;2022-12-11T20:35:42;23.43;;;14.77;;
14992;SDS011;7592;51.088;13.732;2022-12-11T20:40:35;26.47;;;16.03;;
14992;SDS011;7592;51.088;13.732;2022-12-11T20:45:39;22.23;;;14.93;;
14992;SDS011;7592;51.088;13.732;2022-12-11T20:50:37;25.33;;;14.30;;
14992;SDS011;7592;51.088;13.732;2022-12-11T20:55:29;29.27;;;15.63;;
14992;SDS011;7592;51.088;13.732;2022-12-11T21:00:21;33.37;;;19.27;;
14992;SDS011;7592;51.088;13.732;2022-12-11T21:05:13;26.53;;;16.20;;
14992;SDS011;7592;51.088;13.732;2022-12-11T21:10:05;25.93;;;16.63;;
14992;SDS011;7592;51.088;13.732;2022-12-11T21:14:59;27.97;;;16.37;;
14992;SDS011;7592;51.088;13.732;2022-12-11T21:19:51;32.00;;;17.03;;
14992;SDS011;7592;51.088;13.732;2022-12-11T21:24:43;25.87;;;15.93;;
14992;SDS011;7592;51.088;13.732;2022-12-11T21:29:35;27.87;;;17.50;;
14992;SDS011;7592;51.088;13.732;2022-12-11T21:34:27;24.67;;;16.30;;
14992;SDS011;7592;51.088;13.732;2022-12-11T21:39:23;26.67;;;15.63;;
14992;SDS011;7592;51.088;13.732;2022-12-11T21:44:16;26.43;;;16.40;;
14992;SDS011;7592;51.088;13.732;2022-12-11T21:49:28;37.03;;;20.67;;
14992;SDS011;7592;51.088;13.732;2022-12-11T21:54:20;29.27;;;18.57;;
14992;SDS011;7592;51.088;13.732;2022-12-11T21:59:12;26.07;;;16.03;;
14992;SDS011;7592;51.088;13.732;2022-12-11T22:04:05;29.33;;;16.60;;
14992;SDS011;7592;51.088;13.732;2022-12-11T22:08:57;24.70;;;15.93;;
14992;SDS011;7592;51.088;13.732;2022-12-11T22:13:49;28.50;;;18.63;;
14992;SDS011;7592;51.088;13.732;2022-12-11T22:18:41;31.07;;;17.90;;
14992;SDS011;7592;51.088;13.732;2022-12-11T22:23:33;26.73;;;17.47;;
14992;SDS011;7592;51.088;13.732;2022-12-11T22:28:27;33.07;;;18.30;;
14992;SDS011;7592;51.088;13.732;2022-12-11T22:33:20;30.73;;;16.90;;
14992;SDS011;7592;51.088;13.732;2022-12-11T22:38:12;26.10;;;15.83;;
14992;SDS011;7592;51.088;13.732;2022-12-11T22:43:04;29.30;;;17.60;;
14992;SDS011;7592;51.088;13.732;2022-12-11T22:47:56;28.03;;;18.13;;
14992;SDS011;7592;51.088;13.732;2022-12-11T22:52:48;29.17;;;17.27;;
14992;SDS011;7592;51.088;13.732;2022-12-11T22:57:40;31.20;;;17.03;;
14992;SDS011;7592;51.088;13.732;2022-12-11T23:02:32;30.83;;;18.07;;
14992;SDS011;7592;51.088;13.732;2022-12-11T23:07:24;30.53;;;17.57;;
14992;SDS011;7592;51.088;13.732;2022-12-11T23:12:16;30.67;;;18.43;;
14992;SDS011;7592;51.088;13.732;2022-12-11T23:17:09;27.93;;;16.57;;
14992;SDS011;7592;51.088;13.732;2022-12-11T23:22:02;29.33;;;17.60;;
14992;SDS011;7592;51.088;13.732;2022-12-11T23:26:54;27.87;;;16.73;;
14992;SDS011;7592;51.088;13.732;2022-12-11T23:31:46;31.83;;;19.20;;
14992;SDS011;7592;51.088;13.732;2022-12-11T23:36:38;30.83;;;16.53;;
14992;SDS011;7592;51.088;13.732;2022-12-11T23:41:30;30.53;;;17.40;;
14992;SDS011;7592;51.088;13.732;2022-12-11T23:46:23;27.70;;;17.77;;
14992;SDS011;7592;51.088;13.732;2022-12-11T23:51:16;27.03;;;16.73;;
14992;SDS011;7592;51.088;13.732;2022-12-11T23:56:13;30.40;;;16.63;;
